sensor_id;sensor_type;location;lat;lon;timestamp;P1;durP1;ratioP1;P2;durP2;ratioP2
15536;SDS011;7870;52.448;13.270;2023-04-28T00:01:20;9.05;;;5.20;;
15536;SDS011;7870;52.448;13.270;2023-04-28T00:03:47;8.95;;;5.75;;
15536;SDS011;7870;52.448;13.270;2023-04-28T00:06:14;9.88;;;5.43;;
15536;SDS011;7870;52.448;13.270;2023-04-28T00:08:40;9.73;;;4.93;;
15536;SDS011;7870;52.448;13.270;2023-04-28T00:11:10;8.23;;;4.25;;
15536;SDS011;7870;52.448;13.270;2023-04-28T00:13:37;8.23;;;4.53;;
15536;SDS011;7870;52.448;13.270;2023-04-28T00:16:03;8.13;;;3.55;;
15536;SDS011;7870;52.448;13.270;2023-04-28T00:18:30;9.23;;;4.22;;
15536;SDS011;7870;52.448;13.270;2023-04-28T00:20:58;6.13;;;3.92;;
15536;SDS011;7870;52.448;13.270;2023-04-28T00:23:26;8.85;;;4.32;;
15536;SDS011;7870;52.448;13.270;2023-04-28T00:25:53;5.72;;;3.47;;
15536;SDS011;7870;52.448;13.270;2023-04-28T00:28:20;5.38;;;3.65;;
15536;SDS011;7870;52.448;13.270;2023-04-28T00:31:00;5.18;;;3.28;;
15536;SDS011;7870;52.448;13.270;2023-04-28T00:33:26;7.13;;;3.40;;
15536;SDS011;7870;52.448;13.270;2023-04-28T00:35:59;10.88;;;6.28;;
15536;SDS011;7870;52.448;13.270;2023-04-28T00:38:26;10.65;;;6.60;;
15536;SDS011;7870;52.448;13.270;2023-04-28T00:40:53;9.35;;;6.45;;
15536;SDS011;7870;52.448;13.270;2023-04-28T00:43:19;6.75;;;3.47;;
15536;SDS011;7870;52.448;13.270;2023-04-28T00:45:47;7.40;;;5.07;;
15536;SDS011;7870;52.448;13.270;2023-04-28T00:48:15;9.13;;;5.45;;
15536;SDS011;7870;52.448;13.270;2023-04-28T00:50:43;7.22;;;5.13;;
15536;SDS011;7870;52.448;13.270;2023-04-28T00:53:10;6.85;;;4.45;;
15536;SDS011;7870;52.448;13.270;2023-04-28T00:55:37;8.65;;;4.10;;
15536;SDS011;7870;52.448;13.270;2023-04-28T00:58:04;8.82;;;4.82;;
15536;SDS011;7870;52.448;13.270;2023-04-28T01:00:31;10.00;;;4.82;;
15536;SDS011;7870;52.448;13.270;2023-04-28T01:02:58;8.27;;;4.85;;
15536;SDS011;7870;52.448;13.270;2023-04-28T01:05:27;7.80;;;4.60;;
15536;SDS011;7870;52.448;13.270;2023-04-28T01:07:55;10.25;;;4.95;;
15536;SDS011;7870;52.448;13.270;2023-04-28T01:10:21;8.77;;;4.70;;
15536;SDS011;7870;52.448;13.270;2023-04-28T01:12:48;6.45;;;4.68;;
15536;SDS011;7870;52.448;13.270;2023-04-28T01:15:15;7.68;;;4.40;;
15536;SDS011;7870;52.448;13.270;2023-04-28T01:17:44;6.88;;;4.72;;
15536;SDS011;7870;52.448;13.270;2023-04-28T01:20:11;7.25;;;4.40;;
15536;SDS011;7870;52.448;13.270;2023-04-28T01:22:38;10.60;;;4.53;;
15536;SDS011;7870;52.448;13.270;2023-04-28T01:25:06;6.10;;;4.28;;
15536;SDS011;7870;52.448;13.270;2023-04-28T01:27:33;7.00;;;4.35;;
15536;SDS011;7870;52.448;13.270;2023-04-28T01:30:00;8.02;;;5.00;;
15536;SDS011;7870;52.448;13.270;2023-04-28T01:32:27;7.95;;;4.03;;
15536;SDS011;7870;52.448;13.270;2023-04-28T01:34:54;8.38;;;4.55;;
15536;SDS011;7870;52.448;13.270;2023-04-28T01:37:21;9.75;;;4.57;;
15536;SDS011;7870;52.448;13.270;2023-04-28T01:39:48;8.32;;;4.22;;
15536;SDS011;7870;52.448;13.270;2023-04-28T01:42:14;6.45;;;4.07;;
15536;SDS011;7870;52.448;13.270;2023-04-28T01:44:41;7.53;;;4.78;;
15536;SDS011;7870;52.448;13.270;2023-04-28T01:47:09;8.55;;;4.70;;
15536;SDS011;7870;52.448;13.270;2023-04-28T01:49:36;8.90;;;5.25;;
15536;SDS011;7870;52.448;13.270;2023-04-28T01:52:06;7.70;;;4.47;;
15536;SDS011;7870;52.448;13.270;2023-04-28T01:54:32;11.95;;;4.90;;
15536;SDS011;7870;52.448;13.270;2023-04-28T01:56:59;9.73;;;4.80;;
15536;SDS011;7870;52.448;13.270;2023-04-28T01:59:25;9.85;;;5.07;;
15536;SDS011;7870;52.448;13.270;2023-04-28T02:01:52;8.52;;;4.75;;
15536;SDS011;7870;52.448;13.270;2023-04-28T02:04:19;8.57;;;5.10;;
15536;SDS011;7870;52.448;13.270;2023-04-28T02:06:45;7.82;;;4.95;;
15536;SDS011;7870;52.448;13.270;2023-04-28T02:09:12;9.02;;;5.55;;
15536;SDS011;7870;52.448;13.270;2023-04-28T02:11:39;10.57;;;6.13;;
15536;SDS011;7870;52.448;13.270;2023-04-28T02:14:05;7.72;;;4.82;;
15536;SDS011;7870;52.448;13.270;2023-04-28T02:16:32;7.78;;;4.22;;
15536;SDS011;7870;52.448;13.270;2023-04-28T02:18:59;9.45;;;4.97;;
15536;SDS011;7870;52.448;13.270;2023-04-28T02:21:26;7.07;;;4.80;;
15536;SDS011;7870;52.448;13.270;2023-04-28T02:23:53;9.10;;;5.00;;
15536;SDS011;7870;52.448;13.270;2023-04-28T02:26:19;8.20;;;5.10;;
15536;SDS011;7870;52.448;13.270;2023-04-28T02:28:50;6.60;;;4.60;;
15536;SDS011;7870;52.448;13.270;2023-04-28T02:31:16;9.30;;;5.57;;
15536;SDS011;7870;52.448;13.270;2023-04-28T02:33:44;7.68;;;5.40;;
15536;SDS011;7870;52.448;13.270;2023-04-28T02:36:11;8.75;;;5.30;;
15536;SDS011;7870;52.448;13.270;2023-04-28T02:38:38;9.20;;;5.30;;
15536;SDS011;7870;52.448;13.270;2023-04-28T02:41:06;7.80;;;5.40;;
15536;SDS011;7870;52.448;13.270;2023-04-28T02:43:36;8.35;;;5.47;;
15536;SDS011;7870;52.448;13.270;2023-04-28T02:46:03;10.30;;;6.00;;
15536;SDS011;7870;52.448;13.270;2023-04-28T02:48:30;9.38;;;5.30;;
15536;SDS011;7870;52.448;13.270;2023-04-28T02:50:58;9.93;;;5.85;;
15536;SDS011;7870;52.448;13.270;2023-04-28T02:53:24;10.18;;;5.28;;
15536;SDS011;7870;52.448;13.270;2023-04-28T02:55:51;10.65;;;5.57;;
15536;SDS011;7870;52.448;13.270;2023-04-28T02:58:18;8.60;;;5.63;;
15536;SDS011;7870;52.448;13.270;2023-04-28T03:00:45;11.20;;;5.65;;
15536;SDS011;7870;52.448;13.270;2023-04-28T03:03:12;9.63;;;5.10;;
15536;SDS011;7870;52.448;13.270;2023-04-28T03:05:39;11.98;;;5.45;;
15536;SDS011;7870;52.448;13.270;2023-04-28T03:08:06;7.63;;;5.22;;
15536;SDS011;7870;52.448;13.270;2023-04-28T03:10:33;7.13;;;5.10;;
15536;SDS011;7870;52.448;13.270;2023-04-28T03:13:00;10.52;;;5.05;;
15536;SDS011;7870;52.448;13.270;2023-04-28T03:15:28;14.70;;;7.60;;
15536;SDS011;7870;52.448;13.270;2023-04-28T03:17:55;9.60;;;5.50;;
15536;SDS011;7870;52.448;13.270;2023-04-28T03:20:22;10.85;;;5.65;;
15536;SDS011;7870;52.448;13.270;2023-04-28T03:22:49;11.73;;;5.22;;
15536;SDS011;7870;52.448;13.270;2023-04-28T03:25:16;7.70;;;5.10;;
15536;SDS011;7870;52.448;13.270;2023-04-28T03:27:49;8.50;;;5.07;;
15536;SDS011;7870;52.448;13.270;2023-04-28T03:30:16;10.60;;;5.13;;
15536;SDS011;7870;52.448;13.270;2023-04-28T03:32:43;9.50;;;5.07;;
15536;SDS011;7870;52.448;13.270;2023-04-28T03:35:09;10.35;;;5.43;;
15536;SDS011;7870;52.448;13.270;2023-04-28T03:37:37;10.82;;;5.68;;
15536;SDS011;7870;52.448;13.270;2023-04-28T03:40:04;8.35;;;5.40;;
15536;SDS011;7870;52.448;13.270;2023-04-28T03:42:47;9.07;;;5.63;;
15536;SDS011;7870;52.448;13.270;2023-04-28T03:45:21;11.00;;;6.10;;
15536;SDS011;7870;52.448;13.270;2023-04-28T03:47:48;10.98;;;5.50;;
15536;SDS011;7870;52.448;13.270;2023-04-28T03:50:14;7.93;;;5.80;;
15536;SDS011;7870;52.448;13.270;2023-04-28T03:52:41;9.38;;;5.78;;
15536;SDS011;7870;52.448;13.270;2023-04-28T03:55:08;10.45;;;5.65;;
15536;SDS011;7870;52.448;13.270;2023-04-28T03:57:34;11.52;;;5.43;;
15536;SDS011;7870;52.448;13.270;2023-04-28T04:00:02;8.88;;;5.82;;
15536;SDS011;7870;52.448;13.270;2023-04-28T04:02:29;10.60;;;5.47;;
15536;SDS011;7870;52.448;13.270;2023-04-28T04:04:56;12.13;;;5.97;;
15536;SDS011;7870;52.448;13.270;2023-04-28T04:07:23;12.07;;;6.13;;
15536;SDS011;7870;52.448;13.270;2023-04-28T04:09:50;10.05;;;5.75;;
15536;SDS011;7870;52.448;13.270;2023-04-28T04:12:16;8.23;;;6.47;;
15536;SDS011;7870;52.448;13.270;2023-04-28T04:14:44;11.27;;;5.43;;
15536;SDS011;7870;52.448;13.270;2023-04-28T04:17:11;9.82;;;6.55;;
15536;SDS011;7870;52.448;13.270;2023-04-28T04:19:37;16.02;;;7.00;;
15536;SDS011;7870;52.448;13.270;2023-04-28T04:22:04;9.82;;;5.80;;
15536;SDS011;7870;52.448;13.270;2023-04-28T04:24:30;10.07;;;6.00;;
15536;SDS011;7870;52.448;13.270;2023-04-28T04:26:57;10.70;;;4.95;;
15536;SDS011;7870;52.448;13.270;2023-04-28T04:29:32;9.70;;;5.75;;
15536;SDS011;7870;52.448;13.270;2023-04-28T04:32:04;8.15;;;5.70;;
15536;SDS011;7870;52.448;13.270;2023-04-28T04:34:31;8.63;;;4.97;;
15536;SDS011;7870;52.448;13.270;2023-04-28T04:36:58;13.40;;;5.47;;
15536;SDS011;7870;52.448;13.270;2023-04-28T04:39:24;11.48;;;5.82;;
15536;SDS011;7870;52.448;13.270;2023-04-28T04:41:51;16.05;;;5.65;;
15536;SDS011;7870;52.448;13.270;2023-04-28T04:44:46;10.27;;;5.25;;
15536;SDS011;7870;52.448;13.270;2023-04-28T04:47:24;9.93;;;5.60;;
15536;SDS011;7870;52.448;13.270;2023-04-28T04:49:51;12.77;;;5.30;;
15536;SDS011;7870;52.448;13.270;2023-04-28T04:52:17;9.27;;;5.55;;
15536;SDS011;7870;52.448;13.270;2023-04-28T04:54:44;14.18;;;6.88;;
15536;SDS011;7870;52.448;13.270;2023-04-28T04:57:12;11.75;;;5.97;;
15536;SDS011;7870;52.448;13.270;2023-04-28T04:59:59;7.45;;;5.72;;
15536;SDS011;7870;52.448;13.270;2023-04-28T05:02:26;8.75;;;5.32;;
15536;SDS011;7870;52.448;13.270;2023-04-28T05:04:53;7.88;;;4.95;;
15536;SDS011;7870;52.448;13.270;2023-04-28T05:07:34;7.55;;;6.22;;
15536;SDS011;7870;52.448;13.270;2023-04-28T05:10:01;10.77;;;5.25;;
15536;SDS011;7870;52.448;13.270;2023-04-28T05:12:28;10.05;;;5.30;;
15536;SDS011;7870;52.448;13.270;2023-04-28T05:14:55;10.90;;;5.80;;
15536;SDS011;7870;52.448;13.270;2023-04-28T05:17:22;11.43;;;5.40;;
15536;SDS011;7870;52.448;13.270;2023-04-28T05:19:49;10.95;;;5.68;;
15536;SDS011;7870;52.448;13.270;2023-04-28T05:22:16;11.98;;;6.22;;
15536;SDS011;7870;52.448;13.270;2023-04-28T05:24:43;9.15;;;5.82;;
15536;SDS011;7870;52.448;13.270;2023-04-28T05:27:10;9.13;;;5.78;;
15536;SDS011;7870;52.448;13.270;2023-04-28T05:29:36;13.10;;;6.05;;
15536;SDS011;7870;52.448;13.270;2023-04-28T05:32:03;11.95;;;5.60;;
15536;SDS011;7870;52.448;13.270;2023-04-28T05:34:30;9.43;;;5.10;;
15536;SDS011;7870;52.448;13.270;2023-04-28T05:36:56;11.48;;;5.20;;
15536;SDS011;7870;52.448;13.270;2023-04-28T05:39:26;10.27;;;6.05;;
15536;SDS011;7870;52.448;13.270;2023-04-28T05:41:55;10.48;;;5.47;;
15536;SDS011;7870;52.448;13.270;2023-04-28T05:44:23;9.63;;;5.45;;
15536;SDS011;7870;52.448;13.270;2023-04-28T05:46:50;10.05;;;5.43;;
15536;SDS011;7870;52.448;13.270;2023-04-28T05:49:22;10.18;;;5.72;;
15536;SDS011;7870;52.448;13.270;2023-04-28T05:51:49;9.73;;;5.15;;
15536;SDS011;7870;52.448;13.270;2023-04-28T05:54:15;10.35;;;5.25;;
15536;SDS011;7870;52.448;13.270;2023-04-28T05:59:13;15.93;;;5.22;;
15536;SDS011;7870;52.448;13.270;2023-04-28T06:01:40;9.45;;;4.90;;
15536;SDS011;7870;52.448;13.270;2023-04-28T06:04:07;9.60;;;5.28;;
15536;SDS011;7870;52.448;13.270;2023-04-28T06:06:34;13.63;;;4.90;;
15536;SDS011;7870;52.448;13.270;2023-04-28T06:09:02;8.63;;;4.88;;
15536;SDS011;7870;52.448;13.270;2023-04-28T06:11:31;7.20;;;4.65;;
15536;SDS011;7870;52.448;13.270;2023-04-28T06:13:57;12.45;;;5.03;;
15536;SDS011;7870;52.448;13.270;2023-04-28T06:16:24;9.90;;;4.35;;
15536;SDS011;7870;52.448;13.270;2023-04-28T06:18:51;9.70;;;4.47;;
15536;SDS011;7870;52.448;13.270;2023-04-28T06:21:18;10.43;;;5.03;;
15536;SDS011;7870;52.448;13.270;2023-04-28T06:23:46;11.98;;;4.45;;
15536;SDS011;7870;52.448;13.270;2023-04-28T06:26:13;12.85;;;4.78;;
15536;SDS011;7870;52.448;13.270;2023-04-28T06:28:43;11.23;;;4.55;;
15536;SDS011;7870;52.448;13.270;2023-04-28T06:31:09;11.18;;;4.95;;
15536;SDS011;7870;52.448;13.270;2023-04-28T06:33:37;13.75;;;4.90;;
15536;SDS011;7870;52.448;13.270;2023-04-28T06:36:04;8.70;;;4.78;;
15536;SDS011;7870;52.448;13.270;2023-04-28T06:38:31;8.57;;;4.72;;
15536;SDS011;7870;52.448;13.270;2023-04-28T06:40:58;9.43;;;4.47;;
15536;SDS011;7870;52.448;13.270;2023-04-28T06:43:25;9.30;;;4.32;;
15536;SDS011;7870;52.448;13.270;2023-04-28T06:46:03;7.75;;;4.18;;
15536;SDS011;7870;52.448;13.270;2023-04-28T06:48:29;8.93;;;5.28;;
15536;SDS011;7870;52.448;13.270;2023-04-28T06:50:56;10.15;;;4.95;;
15536;SDS011;7870;52.448;13.270;2023-04-28T06:53:23;9.38;;;4.60;;
15536;SDS011;7870;52.448;13.270;2023-04-28T06:55:49;11.25;;;4.63;;
15536;SDS011;7870;52.448;13.270;2023-04-28T06:58:16;9.02;;;4.05;;
15536;SDS011;7870;52.448;13.270;2023-04-28T07:00:43;7.22;;;4.35;;
15536;SDS011;7870;52.448;13.270;2023-04-28T07:03:10;7.68;;;3.92;;
15536;SDS011;7870;52.448;13.270;2023-04-28T07:05:37;10.13;;;3.92;;
15536;SDS011;7870;52.448;13.270;2023-04-28T07:08:03;10.40;;;4.20;;
15536;SDS011;7870;52.448;13.270;2023-04-28T07:10:30;7.07;;;3.70;;
15536;SDS011;7870;52.448;13.270;2023-04-28T07:12:56;8.07;;;3.50;;
15536;SDS011;7870;52.448;13.270;2023-04-28T07:15:24;9.68;;;3.78;;
15536;SDS011;7870;52.448;13.270;2023-04-28T07:17:51;5.80;;;3.35;;
15536;SDS011;7870;52.448;13.270;2023-04-28T07:20:17;5.63;;;3.40;;
15536;SDS011;7870;52.448;13.270;2023-04-28T07:22:44;7.60;;;3.83;;
15536;SDS011;7870;52.448;13.270;2023-04-28T07:25:11;7.95;;;3.95;;
15536;SDS011;7870;52.448;13.270;2023-04-28T07:27:37;6.43;;;4.00;;
15536;SDS011;7870;52.448;13.270;2023-04-28T07:30:04;7.78;;;4.03;;
15536;SDS011;7870;52.448;13.270;2023-04-28T07:32:50;10.95;;;4.63;;
15536;SDS011;7870;52.448;13.270;2023-04-28T07:35:17;7.90;;;4.40;;
15536;SDS011;7870;52.448;13.270;2023-04-28T07:37:43;7.88;;;4.55;;
15536;SDS011;7870;52.448;13.270;2023-04-28T07:40:10;10.40;;;4.75;;
15536;SDS011;7870;52.448;13.270;2023-04-28T07:42:37;7.90;;;4.13;;
15536;SDS011;7870;52.448;13.270;2023-04-28T07:45:03;6.88;;;4.70;;
15536;SDS011;7870;52.448;13.270;2023-04-28T07:47:30;8.00;;;4.47;;
15536;SDS011;7870;52.448;13.270;2023-04-28T07:49:57;8.00;;;4.65;;
15536;SDS011;7870;52.448;13.270;2023-04-28T07:52:26;7.75;;;4.40;;
15536;SDS011;7870;52.448;13.270;2023-04-28T07:54:52;11.48;;;5.93;;
15536;SDS011;7870;52.448;13.270;2023-04-28T07:57:19;11.15;;;5.22;;
15536;SDS011;7870;52.448;13.270;2023-04-28T07:59:45;9.07;;;4.45;;
15536;SDS011;7870;52.448;13.270;2023-04-28T08:02:12;9.60;;;4.57;;
15536;SDS011;7870;52.448;13.270;2023-04-28T08:04:40;8.07;;;4.20;;
15536;SDS011;7870;52.448;13.270;2023-04-28T08:07:07;10.43;;;4.55;;
15536;SDS011;7870;52.448;13.270;2023-04-28T08:09:34;9.10;;;3.90;;
15536;SDS011;7870;52.448;13.270;2023-04-28T08:12:01;8.95;;;4.35;;
15536;SDS011;7870;52.448;13.270;2023-04-28T08:14:27;7.30;;;4.00;;
15536;SDS011;7870;52.448;13.270;2023-04-28T08:16:54;11.35;;;4.78;;
15536;SDS011;7870;52.448;13.270;2023-04-28T08:19:22;7.47;;;4.03;;
15536;SDS011;7870;52.448;13.270;2023-04-28T08:21:49;10.63;;;4.05;;
15536;SDS011;7870;52.448;13.270;2023-04-28T08:24:15;10.38;;;4.32;;
15536;SDS011;7870;52.448;13.270;2023-04-28T08:26:42;9.70;;;4.57;;
15536;SDS011;7870;52.448;13.270;2023-04-28T08:29:09;8.25;;;3.85;;
15536;SDS011;7870;52.448;13.270;2023-04-28T08:31:35;10.05;;;4.13;;
15536;SDS011;7870;52.448;13.270;2023-04-28T08:34:02;6.72;;;4.07;;
15536;SDS011;7870;52.448;13.270;2023-04-28T08:36:29;10.75;;;4.30;;
15536;SDS011;7870;52.448;13.270;2023-04-28T08:38:57;8.40;;;4.20;;
15536;SDS011;7870;52.448;13.270;2023-04-28T08:41:31;6.88;;;3.75;;
15536;SDS011;7870;52.448;13.270;2023-04-28T08:43:58;6.07;;;3.85;;
15536;SDS011;7870;52.448;13.270;2023-04-28T08:46:24;9.95;;;4.10;;
15536;SDS011;7870;52.448;13.270;2023-04-28T08:48:54;8.82;;;4.65;;
15536;SDS011;7870;52.448;13.270;2023-04-28T08:51:26;10.45;;;4.90;;
15536;SDS011;7870;52.448;13.270;2023-04-28T08:53:58;7.75;;;4.20;;
15536;SDS011;7870;52.448;13.270;2023-04-28T08:56:34;8.88;;;4.93;;
15536;SDS011;7870;52.448;13.270;2023-04-28T08:59:01;9.27;;;4.37;;
15536;SDS011;7870;52.448;13.270;2023-04-28T09:01:30;10.10;;;4.18;;
15536;SDS011;7870;52.448;13.270;2023-04-28T09:03:59;13.30;;;5.43;;
15536;SDS011;7870;52.448;13.270;2023-04-28T09:06:30;17.23;;;6.05;;
15536;SDS011;7870;52.448;13.270;2023-04-28T09:09:16;9.50;;;4.93;;
15536;SDS011;7870;52.448;13.270;2023-04-28T09:14:25;12.18;;;4.95;;
15536;SDS011;7870;52.448;13.270;2023-04-28T09:16:55;10.70;;;4.70;;
15536;SDS011;7870;52.448;13.270;2023-04-28T09:19:22;8.65;;;4.82;;
15536;SDS011;7870;52.448;13.270;2023-04-28T09:21:53;11.18;;;5.28;;
15536;SDS011;7870;52.448;13.270;2023-04-28T09:24:26;9.00;;;4.70;;
15536;SDS011;7870;52.448;13.270;2023-04-28T09:27:05;7.70;;;4.57;;
15536;SDS011;7870;52.448;13.270;2023-04-28T09:29:36;10.45;;;5.20;;
15536;SDS011;7870;52.448;13.270;2023-04-28T09:32:11;10.18;;;5.20;;
15536;SDS011;7870;52.448;13.270;2023-04-28T09:34:49;7.82;;;4.78;;
15536;SDS011;7870;52.448;13.270;2023-04-28T09:37:20;9.20;;;5.00;;
15536;SDS011;7870;52.448;13.270;2023-04-28T09:39:52;9.98;;;4.72;;
15536;SDS011;7870;52.448;13.270;2023-04-28T09:42:32;13.55;;;5.55;;
15536;SDS011;7870;52.448;13.270;2023-04-28T09:45:00;9.75;;;5.03;;
15536;SDS011;7870;52.448;13.270;2023-04-28T09:47:30;7.78;;;5.03;;
15536;SDS011;7870;52.448;13.270;2023-04-28T09:49:59;7.95;;;5.18;;
15536;SDS011;7870;52.448;13.270;2023-04-28T09:52:26;11.70;;;5.15;;
15536;SDS011;7870;52.448;13.270;2023-04-28T09:54:54;8.75;;;4.68;;
15536;SDS011;7870;52.448;13.270;2023-04-28T09:57:22;10.45;;;5.60;;
15536;SDS011;7870;52.448;13.270;2023-04-28T09:59:49;7.65;;;4.78;;
15536;SDS011;7870;52.448;13.270;2023-04-28T10:02:17;11.65;;;5.10;;
15536;SDS011;7870;52.448;13.270;2023-04-28T10:05:05;9.63;;;5.30;;
15536;SDS011;7870;52.448;13.270;2023-04-28T10:07:35;7.27;;;4.83;;
15536;SDS011;7870;52.448;13.270;2023-04-28T10:10:02;9.30;;;5.38;;
15536;SDS011;7870;52.448;13.270;2023-04-28T10:12:29;8.38;;;5.15;;
15536;SDS011;7870;52.448;13.270;2023-04-28T10:14:57;9.50;;;5.28;;
15536;SDS011;7870;52.448;13.270;2023-04-28T10:17:25;8.50;;;5.10;;
15536;SDS011;7870;52.448;13.270;2023-04-28T10:19:52;8.43;;;4.30;;
15536;SDS011;7870;52.448;13.270;2023-04-28T10:27:38;9.65;;;5.30;;
15536;SDS011;7870;52.448;13.270;2023-04-28T10:30:12;9.20;;;4.85;;
15536;SDS011;7870;52.448;13.270;2023-04-28T10:35:39;9.68;;;5.25;;
15536;SDS011;7870;52.448;13.270;2023-04-28T10:38:11;8.70;;;4.78;;
15536;SDS011;7870;52.448;13.270;2023-04-28T10:40:49;9.02;;;5.32;;
15536;SDS011;7870;52.448;13.270;2023-04-28T10:43:37;15.18;;;5.53;;
15536;SDS011;7870;52.448;13.270;2023-04-28T10:46:05;9.38;;;5.22;;
15536;SDS011;7870;52.448;13.270;2023-04-28T10:56:26;8.40;;;4.43;;
15536;SDS011;7870;52.448;13.270;2023-04-28T10:58:53;6.47;;;4.35;;
15536;SDS011;7870;52.448;13.270;2023-04-28T11:03:49;7.85;;;4.90;;
15536;SDS011;7870;52.448;13.270;2023-04-28T11:08:46;10.80;;;5.55;;
15536;SDS011;7870;52.448;13.270;2023-04-28T11:11:14;8.77;;;4.15;;
15536;SDS011;7870;52.448;13.270;2023-04-28T11:13:42;10.15;;;5.82;;
15536;SDS011;7870;52.448;13.270;2023-04-28T11:16:15;10.43;;;4.82;;
15536;SDS011;7870;52.448;13.270;2023-04-28T11:18:50;8.70;;;5.03;;
15536;SDS011;7870;52.448;13.270;2023-04-28T11:21:21;9.07;;;5.68;;
15536;SDS011;7870;52.448;13.270;2023-04-28T11:23:48;8.57;;;4.93;;
15536;SDS011;7870;52.448;13.270;2023-04-28T11:26:15;10.98;;;5.93;;
15536;SDS011;7870;52.448;13.270;2023-04-28T11:28:48;8.70;;;5.07;;
15536;SDS011;7870;52.448;13.270;2023-04-28T11:31:18;9.27;;;5.43;;
15536;SDS011;7870;52.448;13.270;2023-04-28T11:33:52;11.68;;;6.30;;
15536;SDS011;7870;52.448;13.270;2023-04-28T11:36:40;10.55;;;6.00;;
15536;SDS011;7870;52.448;13.270;2023-04-28T11:39:07;9.38;;;5.65;;
15536;SDS011;7870;52.448;13.270;2023-04-28T11:41:36;9.15;;;5.63;;
15536;SDS011;7870;52.448;13.270;2023-04-28T11:44:16;11.60;;;6.63;;
15536;SDS011;7870;52.448;13.270;2023-04-28T11:46:49;10.20;;;5.15;;
15536;SDS011;7870;52.448;13.270;2023-04-28T11:49:17;10.43;;;5.60;;
15536;SDS011;7870;52.448;13.270;2023-04-28T11:51:43;11.98;;;5.53;;
15536;SDS011;7870;52.448;13.270;2023-04-28T11:54:12;8.55;;;5.30;;
15536;SDS011;7870;52.448;13.270;2023-04-28T11:56:41;11.77;;;5.78;;
15536;SDS011;7870;52.448;13.270;2023-04-28T11:59:08;11.13;;;6.35;;
15536;SDS011;7870;52.448;13.270;2023-04-28T12:01:43;9.43;;;5.97;;
15536;SDS011;7870;52.448;13.270;2023-04-28T12:04:11;13.95;;;5.20;;
15536;SDS011;7870;52.448;13.270;2023-04-28T12:06:38;9.48;;;5.57;;
15536;SDS011;7870;52.448;13.270;2023-04-28T12:09:18;10.85;;;6.22;;
15536;SDS011;7870;52.448;13.270;2023-04-28T12:11:53;11.70;;;5.80;;
15536;SDS011;7870;52.448;13.270;2023-04-28T12:14:22;9.90;;;5.47;;
15536;SDS011;7870;52.448;13.270;2023-04-28T12:16:49;9.40;;;5.40;;
15536;SDS011;7870;52.448;13.270;2023-04-28T12:19:16;8.40;;;5.13;;
15536;SDS011;7870;52.448;13.270;2023-04-28T12:21:57;12.85;;;5.50;;
15536;SDS011;7870;52.448;13.270;2023-04-28T12:26:53;9.90;;;5.60;;
15536;SDS011;7870;52.448;13.270;2023-04-28T12:29:38;12.15;;;4.85;;
15536;SDS011;7870;52.448;13.270;2023-04-28T12:32:06;8.52;;;6.07;;
15536;SDS011;7870;52.448;13.270;2023-04-28T12:34:33;9.65;;;5.28;;
15536;SDS011;7870;52.448;13.270;2023-04-28T12:37:01;11.35;;;6.57;;
15536;SDS011;7870;52.448;13.270;2023-04-28T12:39:31;10.55;;;6.03;;
15536;SDS011;7870;52.448;13.270;2023-04-28T12:41:59;10.30;;;5.82;;
15536;SDS011;7870;52.448;13.270;2023-04-28T12:44:34;8.68;;;5.35;;
15536;SDS011;7870;52.448;13.270;2023-04-28T12:47:02;11.77;;;5.00;;
15536;SDS011;7870;52.448;13.270;2023-04-28T12:49:36;9.98;;;4.97;;
15536;SDS011;7870;52.448;13.270;2023-04-28T12:52:04;11.50;;;5.45;;
15536;SDS011;7870;52.448;13.270;2023-04-28T12:54:31;9.32;;;5.03;;
15536;SDS011;7870;52.448;13.270;2023-04-28T12:56:57;9.95;;;4.93;;
15536;SDS011;7870;52.448;13.270;2023-04-28T12:59:24;7.75;;;4.78;;
15536;SDS011;7870;52.448;13.270;2023-04-28T13:01:50;9.38;;;4.93;;
15536;SDS011;7870;52.448;13.270;2023-04-28T13:04:17;12.55;;;6.35;;
15536;SDS011;7870;52.448;13.270;2023-04-28T13:06:44;6.95;;;4.57;;
15536;SDS011;7870;52.448;13.270;2023-04-28T13:09:12;15.15;;;5.25;;
15536;SDS011;7870;52.448;13.270;2023-04-28T13:11:40;10.27;;;4.90;;
15536;SDS011;7870;52.448;13.270;2023-04-28T13:14:07;10.13;;;5.63;;
15536;SDS011;7870;52.448;13.270;2023-04-28T13:16:34;9.55;;;5.05;;
15536;SDS011;7870;52.448;13.270;2023-04-28T13:19:01;11.05;;;5.03;;
15536;SDS011;7870;52.448;13.270;2023-04-28T13:21:28;8.75;;;5.20;;
15536;SDS011;7870;52.448;13.270;2023-04-28T13:23:55;10.73;;;5.10;;
15536;SDS011;7870;52.448;13.270;2023-04-28T13:26:22;9.43;;;5.53;;
15536;SDS011;7870;52.448;13.270;2023-04-28T13:28:52;9.43;;;4.93;;
15536;SDS011;7870;52.448;13.270;2023-04-28T13:31:18;10.43;;;5.25;;
15536;SDS011;7870;52.448;13.270;2023-04-28T13:33:45;11.95;;;5.82;;
15536;SDS011;7870;52.448;13.270;2023-04-28T13:36:12;7.32;;;5.10;;
15536;SDS011;7870;52.448;13.270;2023-04-28T13:38:38;10.40;;;5.93;;
15536;SDS011;7870;52.448;13.270;2023-04-28T13:41:05;12.60;;;6.38;;
15536;SDS011;7870;52.448;13.270;2023-04-28T13:43:31;8.65;;;6.07;;
15536;SDS011;7870;52.448;13.270;2023-04-28T13:45:58;9.07;;;5.80;;
15536;SDS011;7870;52.448;13.270;2023-04-28T13:48:25;14.32;;;6.07;;
15536;SDS011;7870;52.448;13.270;2023-04-28T13:50:52;9.13;;;5.32;;
15536;SDS011;7870;52.448;13.270;2023-04-28T13:53:19;10.07;;;5.20;;
15536;SDS011;7870;52.448;13.270;2023-04-28T13:55:47;13.05;;;5.18;;
15536;SDS011;7870;52.448;13.270;2023-04-28T13:58:15;9.68;;;5.40;;
15536;SDS011;7870;52.448;13.270;2023-04-28T14:00:42;11.00;;;6.20;;
15536;SDS011;7870;52.448;13.270;2023-04-28T14:03:09;10.73;;;5.22;;
15536;SDS011;7870;52.448;13.270;2023-04-28T14:05:36;11.65;;;5.22;;
15536;SDS011;7870;52.448;13.270;2023-04-28T14:08:14;11.25;;;5.28;;
15536;SDS011;7870;52.448;13.270;2023-04-28T14:10:45;9.48;;;5.22;;
15536;SDS011;7870;52.448;13.270;2023-04-28T14:13:12;8.98;;;5.63;;
15536;SDS011;7870;52.448;13.270;2023-04-28T14:15:38;8.90;;;5.60;;
15536;SDS011;7870;52.448;13.270;2023-04-28T14:18:22;9.23;;;5.72;;
15536;SDS011;7870;52.448;13.270;2023-04-28T14:20:49;12.25;;;5.63;;
15536;SDS011;7870;52.448;13.270;2023-04-28T14:23:16;8.57;;;5.93;;
15536;SDS011;7870;52.448;13.270;2023-04-28T14:25:42;10.80;;;5.18;;
15536;SDS011;7870;52.448;13.270;2023-04-28T14:28:09;9.05;;;5.15;;
15536;SDS011;7870;52.448;13.270;2023-04-28T14:30:36;10.95;;;5.90;;
15536;SDS011;7870;52.448;13.270;2023-04-28T14:33:03;7.20;;;5.35;;
15536;SDS011;7870;52.448;13.270;2023-04-28T14:35:29;14.65;;;5.70;;
15536;SDS011;7870;52.448;13.270;2023-04-28T14:37:57;12.65;;;5.25;;
15536;SDS011;7870;52.448;13.270;2023-04-28T14:40:23;10.73;;;6.18;;
15536;SDS011;7870;52.448;13.270;2023-04-28T14:42:50;9.90;;;5.10;;
15536;SDS011;7870;52.448;13.270;2023-04-28T14:45:18;10.35;;;5.47;;
15536;SDS011;7870;52.448;13.270;2023-04-28T14:47:44;8.10;;;5.28;;
15536;SDS011;7870;52.448;13.270;2023-04-28T14:50:11;10.43;;;5.65;;
15536;SDS011;7870;52.448;13.270;2023-04-28T14:52:39;10.57;;;5.43;;
15536;SDS011;7870;52.448;13.270;2023-04-28T14:55:06;12.13;;;5.75;;
15536;SDS011;7870;52.448;13.270;2023-04-28T14:57:33;12.18;;;5.70;;
15536;SDS011;7870;52.448;13.270;2023-04-28T15:00:00;9.20;;;5.60;;
15536;SDS011;7870;52.448;13.270;2023-04-28T15:02:27;9.48;;;5.75;;
15536;SDS011;7870;52.448;13.270;2023-04-28T15:04:55;8.45;;;5.90;;
15536;SDS011;7870;52.448;13.270;2023-04-28T15:07:23;10.23;;;6.50;;
15536;SDS011;7870;52.448;13.270;2023-04-28T15:09:51;11.75;;;7.00;;
15536;SDS011;7870;52.448;13.270;2023-04-28T15:12:18;9.98;;;6.50;;
15536;SDS011;7870;52.448;13.270;2023-04-28T15:14:46;9.55;;;6.15;;
15536;SDS011;7870;52.448;13.270;2023-04-28T15:17:13;13.32;;;6.60;;
15536;SDS011;7870;52.448;13.270;2023-04-28T15:19:39;8.45;;;5.90;;